Time;durP1;ratioP1;P1;durP2;ratioP2;P2;SDS_P1;SDS_P2;PMS_P1;PMS_P2;Temp;Humidity;BMP_temperature;BMP_pressure;BME280_temperature;BME280_humidity;BME280_pressure;Samples;Min_cycle;Max_cycle;Signal;HPM_P1;HPM_P2
2023/12/25 00:02:19;;;;;;;0.60;0.60;;;;;231.90;258443.00;;;;5074056;28;20222;-61
2023/12/25 00:04:48;;;;;;;0.53;0.53;;;;;231.90;258443.00;;;;5073577;28;20581;-61
2023/12/25 00:07:15;;;;;;;0.53;0.53;;;;;231.90;258443.00;;;;5073790;28;20203;-62
2023/12/25 00:09:43;;;;;;;0.87;0.87;;;;;231.90;258443.00;;;;5073558;28;20552;-62
2023/12/25 00:12:10;;;;;;;0.60;0.60;;;;;231.90;258443.00;;;;5073543;28;20216;-62
2023/12/25 00:14:38;;;;;;;0.60;0.60;;;;;231.90;258443.00;;;;5073973;28;20187;-62
2023/12/25 00:17:05;;;;;;;0.70;0.70;;;;;231.90;258443.00;;;;5072184;28;20191;-62
2023/12/25 00:19:32;;;;;;;0.67;0.67;;;;;231.90;258443.00;;;;5071952;28;20203;-62
2023/12/25 00:22:01;;;;;;;0.90;0.90;;;;;231.90;258443.00;;;;5073365;28;20222;-62
2023/12/25 00:24:29;;;;;;;0.70;0.70;;;;;231.90;258443.00;;;;5073152;28;20236;-62
2023/12/25 00:26:56;;;;;;;0.80;0.80;;;;;231.90;258443.00;;;;5073319;28;20188;-62
2023/12/25 00:29:23;;;;;;;0.80;0.80;;;;;231.90;258443.00;;;;5073289;28;20278;-62
2023/12/25 00:31:51;;;;;;;0.50;0.50;;;;;231.90;258443.00;;;;5073476;28;20230;-61
2023/12/25 00:34:18;;;;;;;0.73;0.73;;;;;231.90;258443.00;;;;5073651;28;20184;-61
2023/12/25 00:36:46;;;;;;;0.87;0.87;;;;;231.90;258443.00;;;;5073341;28;20192;-61
2023/12/25 00:39:15;;;;;;;1.07;0.70;;;;;231.90;258443.00;;;;5073240;28;20210;-61
2023/12/25 00:41:42;;;;;;;0.43;0.43;;;;;231.90;258443.00;;;;5073508;28;20222;-62
2023/12/25 00:44:10;;;;;;;0.60;0.60;;;;;231.90;258443.00;;;;5073180;28;20215;-62
2023/12/25 00:46:37;;;;;;;0.60;0.60;;;;;231.90;258443.00;;;;5073087;28;20203;-62
2023/12/25 00:49:04;;;;;;;0.60;0.60;;;;;231.90;258443.00;;;;5073086;28;20551;-62
2023/12/25 00:51:32;;;;;;;0.70;0.70;;;;;231.90;258443.00;;;;5073011;28;20188;-62
2023/12/25 00:54:00;;;;;;;0.90;0.90;;;;;231.90;258443.00;;;;5072992;28;20195;-61
2023/12/25 00:56:28;;;;;;;0.50;0.50;;;;;231.90;258443.00;;;;5073019;28;20195;-62
2023/12/25 00:58:56;;;;;;;1.80;1.17;;;;;231.90;258443.00;;;;5073088;28;20199;-62
2023/12/25 01:01:25;;;;;;;0.60;0.60;;;;;231.90;258443.00;;;;5072943;28;20214;-62
2023/12/25 01:03:52;;;;;;;0.60;0.60;;;;;231.90;258443.00;;;;5073099;28;20202;-61
2023/12/25 01:06:20;;;;;;;0.60;0.60;;;;;231.90;258443.00;;;;5072913;28;20188;-61
2023/12/25 01:08:47;;;;;;;0.50;0.50;;;;;231.90;258443.00;;;;5073548;28;20191;-61
2023/12/25 01:11:15;;;;;;;0.57;0.57;;;;;231.90;258443.00;;;;5076951;28;20199;-61
2023/12/25 01:13:43;;;;;;;0.90;0.90;;;;;231.90;258443.00;;;;5077116;28;20191;-62
2023/12/25 01:16:11;;;;;;;0.60;0.60;;;;;231.90;258443.00;;;;5076788;28;20188;-62
2023/12/25 01:18:38;;;;;;;0.67;0.67;;;;;231.90;258443.00;;;;5076663;28;20199;-62
2023/12/25 01:21:06;;;;;;;0.57;0.57;;;;;231.90;258443.00;;;;5076680;28;20191;-62
2023/12/25 01:23:33;;;;;;;0.60;0.60;;;;;231.90;258443.00;;;;5076625;28;20214;-62
2023/12/25 01:26:01;;;;;;;0.77;0.77;;;;;231.90;258443.00;;;;5076693;28;20215;-62
2023/12/25 01:28:28;;;;;;;0.50;0.50;;;;;231.90;258443.00;;;;5076547;28;20190;-62
2023/12/25 01:30:57;;;;;;;0.60;0.60;;;;;231.90;258443.00;;;;5077145;28;20241;-62
2023/12/25 01:33:24;;;;;;;0.80;0.80;;;;;231.90;258443.00;;;;5076429;28;20214;-62
2023/12/25 01:35:52;;;;;;;0.50;0.50;;;;;231.90;258443.00;;;;5076491;28;20192;-62
2023/12/25 01:38:19;;;;;;;0.60;0.60;;;;;231.90;258443.00;;;;5076364;28;20551;-62
2023/12/25 01:40:46;;;;;;;1.27;0.90;;;;;231.90;258443.00;;;;5076304;28;20556;-62
2023/12/25 01:43:14;;;;;;;0.50;0.50;;;;;231.90;258443.00;;;;5076353;28;20691;-62
2023/12/25 01:45:41;;;;;;;0.80;0.80;;;;;231.90;258443.00;;;;5076177;28;20211;-62
2023/12/25 01:48:12;;;;;;;0.57;0.57;;;;;231.90;258443.00;;;;5076226;28;20199;-62
2023/12/25 01:50:40;;;;;;;1.37;0.70;;;;;231.90;258443.00;;;;5076409;28;20195;-62
2023/12/25 01:53:09;;;;;;;0.60;0.60;;;;;231.90;258443.00;;;;5076049;28;20725;-62
2023/12/25 01:55:37;;;;;;;0.60;0.60;;;;;231.90;258443.00;;;;5076160;28;20191;-62
2023/12/25 01:58:05;;;;;;;0.53;0.53;;;;;231.90;258443.00;;;;5076014;28;20709;-62
2023/12/25 02:00:32;;;;;;;0.60;0.60;;;;;231.90;258443.00;;;;5075969;28;20196;-62
2023/12/25 02:03:00;;;;;;;0.50;0.50;;;;;231.90;258443.00;;;;5075828;28;20217;-62
2023/12/25 02:05:29;;;;;;;0.67;0.67;;;;;231.90;258443.00;;;;5075839;28;20292;-62
2023/12/25 02:07:57;;;;;;;0.67;0.67;;;;;231.90;258443.00;;;;5076718;28;20191;-62
2023/12/25 02:10:28;;;;;;;0.70;0.70;;;;;231.90;258443.00;;;;5075889;28;20198;-62
2023/12/25 02:12:57;;;;;;;0.60;0.60;;;;;231.90;258443.00;;;;5075971;28;20219;-62
2023/12/25 02:15:25;;;;;;;0.50;0.50;;;;;231.90;258443.00;;;;5075723;28;20219;-62
2023/12/25 02:17:53;;;;;;;0.73;0.70;;;;;231.90;258443.00;;;;5075738;28;20288;-62
2023/12/25 02:20:22;;;;;;;0.60;0.60;;;;;231.90;258443.00;;;;5075289;28;20199;-62
2023/12/25 02:22:51;;;;;;;0.87;0.87;;;;;231.90;258443.00;;;;5075571;28;20230;-62
2023/12/25 02:25:31;;;;;;;1.73;1.63;;;;;231.90;258443.00;;;;5075880;28;20246;-62
2023/12/25 02:28:00;;;;;;;0.60;0.60;;;;;231.90;258443.00;;;;5075614;28;20199;-62
2023/12/25 02:30:28;;;;;;;0.70;0.70;;;;;231.90;258443.00;;;;5075450;28;20200;-62
2023/12/25 02:32:55;;;;;;;0.60;0.60;;;;;231.90;258443.00;;;;5075376;28;20265;-62
2023/12/25 02:35:23;;;;;;;0.83;0.83;;;;;231.90;258443.00;;;;5075335;28;20194;-62
2023/12/25 02:37:52;;;;;;;0.70;0.70;;;;;231.90;258443.00;;;;5075414;28;20199;-62
2023/12/25 02:40:21;;;;;;;0.70;0.70;;;;;231.90;258443.00;;;;5075251;28;20654;-62
2023/12/25 02:42:49;;;;;;;0.60;0.60;;;;;231.90;258443.00;;;;5075143;28;20215;-62
2023/12/25 02:45:17;;;;;;;0.60;0.60;;;;;231.90;258443.00;;;;5075110;28;20230;-62
2023/12/25 02:47:45;;;;;;;0.77;0.77;;;;;231.90;258443.00;;;;5073816;28;20195;-62
2023/12/25 02:50:12;;;;;;;0.60;0.60;;;;;231.90;258443.00;;;;5075101;28;20191;-62
2023/12/25 02:52:40;;;;;;;0.60;0.60;;;;;231.90;258443.00;;;;5074998;28;20222;-62
2023/12/25 02:55:08;;;;;;;0.80;0.80;;;;;231.90;258443.00;;;;5074905;28;20197;-62
2023/12/25 02:57:35;;;;;;;0.60;0.60;;;;;231.90;258443.00;;;;5075157;28;20198;-62
2023/12/25 03:00:02;;;;;;;0.80;0.80;;;;;231.90;258443.00;;;;5075130;28;20528;-62
2023/12/25 03:02:31;;;;;;;0.60;0.60;;;;;231.90;258443.00;;;;5075115;28;20219;-62
2023/12/25 03:04:58;;;;;;;0.90;0.90;;;;;231.90;258443.00;;;;5074620;28;20290;-62
2023/12/25 03:07:26;;;;;;;0.70;0.70;;;;;231.90;258443.00;;;;5074811;28;20188;-62
2023/12/25 03:09:53;;;;;;;0.50;0.50;;;;;231.90;258443.00;;;;5074633;28;20192;-62
2023/12/25 03:12:21;;;;;;;0.80;0.80;;;;;231.90;258443.00;;;;5074701;28;20675;-63
2023/12/25 03:14:48;;;;;;;4.90;0.70;;;;;231.90;258443.00;;;;5074481;28;20247;-62
2023/12/25 03:17:15;;;;;;;0.70;0.70;;;;;231.90;258443.00;;;;5074441;28;20248;-62
2023/12/25 03:19:44;;;;;;;0.60;0.60;;;;;231.90;258443.00;;;;5074524;28;20183;-62
2023/12/25 03:22:11;;;;;;;0.70;0.70;;;;;231.90;258443.00;;;;5074321;28;20219;-62
2023/12/25 03:24:39;;;;;;;0.50;0.50;;;;;231.90;258443.00;;;;5074280;28;20269;-62
2023/12/25 03:27:06;;;;;;;0.60;0.60;;;;;231.90;258443.00;;;;5074381;28;20202;-62
2023/12/25 03:29:33;;;;;;;0.60;0.60;;;;;231.90;258443.00;;;;5074255;28;20598;-62
2023/12/25 03:32:01;;;;;;;0.60;0.60;;;;;231.90;258443.00;;;;5073433;28;20226;-62
2023/12/25 03:34:28;;;;;;;0.97;0.97;;;;;231.90;258443.00;;;;5074215;28;20521;-62
2023/12/25 03:36:57;;;;;;;0.80;0.80;;;;;231.90;258443.00;;;;5074099;28;20194;-62
2023/12/25 03:39:24;;;;;;;1.03;0.90;;;;;231.90;258443.00;;;;5073951;28;20192;-62
2023/12/25 03:41:53;;;;;;;0.60;0.60;;;;;231.90;258443.00;;;;5073889;28;20249;-62
2023/12/25 03:44:20;;;;;;;0.60;0.60;;;;;231.90;258443.00;;;;5073825;28;20188;-62
2023/12/25 03:46:48;;;;;;;0.80;0.80;;;;;231.90;258443.00;;;;5074002;28;20215;-62
2023/12/25 03:49:15;;;;;;;0.60;0.60;;;;;231.90;258443.00;;;;5074433;28;20207;-62
2023/12/25 03:51:42;;;;;;;0.97;0.97;;;;;231.90;258443.00;;;;5073820;28;20553;-62
2023/12/25 03:54:11;;;;;;;0.70;0.70;;;;;231.90;258443.00;;;;5073725;28;20198;-62
2023/12/25 03:56:38;;;;;;;0.93;0.93;;;;;231.90;258443.00;;;;5073666;28;20190;-62
2023/12/25 03:59:05;;;;;;;0.60;0.60;;;;;231.90;258443.00;;;;5073701;28;20188;-62
2023/12/25 04:01:38;;;;;;;0.83;0.83;;;;;231.90;258443.00;;;;5073959;28;20682;-62
2023/12/25 04:04:05;;;;;;;0.73;0.73;;;;;231.90;258443.00;;;;5072470;28;20199;-62
2023/12/25 04:06:33;;;;;;;2.10;0.97;;;;;231.90;258443.00;;;;5073770;28;20203;-62
2023/12/25 04:09:00;;;;;;;0.70;0.70;;;;;231.90;258443.00;;;;5073956;28;20188;-62
2023/12/25 04:11:29;;;;;;;0.60;0.60;;;;;231.90;258443.00;;;;5073839;28;20195;-62
2023/12/25 04:13:56;;;;;;;0.60;0.60;;;;;231.90;258443.00;;;;5073965;28;20187;-62
2023/12/25 04:16:25;;;;;;;0.70;0.70;;;;;231.90;258443.00;;;;5072661;28;20195;-62
2023/12/25 04:18:53;;;;;;;0.60;0.60;;;;;231.90;258443.00;;;;5073574;28;20203;-62
2023/12/25 04:21:24;;;;;;;0.60;0.60;;;;;231.90;258443.00;;;;5073435;28;20233;-62
2023/12/25 04:23:52;;;;;;;0.50;0.50;;;;;231.90;258443.00;;;;5073306;28;20202;-62
2023/12/25 04:26:19;;;;;;;0.57;0.57;;;;;231.90;258443.00;;;;5073584;28;20226;-62
2023/12/25 04:28:49;;;;;;;0.50;0.50;;;;;231.90;258443.00;;;;5073339;28;20191;-62
2023/12/25 04:31:16;;;;;;;1.27;0.80;;;;;231.90;258443.00;;;;5073108;28;20195;-62
2023/12/25 04:33:44;;;;;;;0.60;0.60;;;;;231.90;258443.00;;;;5073250;28;20195;-62
2023/12/25 04:36:11;;;;;;;0.70;0.70;;;;;231.90;258443.00;;;;5073358;28;20188;-62
2023/12/25 04:38:39;;;;;;;4.90;1.00;;;;;231.90;258443.00;;;;5073378;28;20199;-62
2023/12/25 04:41:06;;;;;;;0.70;0.70;;;;;231.90;258443.00;;;;5073014;28;20187;-62
2023/12/25 04:43:34;;;;;;;0.50;0.50;;;;;231.90;258443.00;;;;5072959;28;20698;-62
2023/12/25 04:46:03;;;;;;;0.60;0.60;;;;;231.90;258443.00;;;;5073469;28;20216;-62
2023/12/25 04:48:30;;;;;;;1.10;1.03;;;;;231.90;258443.00;;;;5072948;28;20673;-62
2023/12/25 04:50:59;;;;;;;0.60;0.60;;;;;231.90;258443.00;;;;5073067;28;20188;-62
2023/12/25 04:53:27;;;;;;;0.50;0.50;;;;;231.90;258443.00;;;;5072896;28;20211;-62
2023/12/25 04:55:55;;;;;;;1.00;0.90;;;;;231.90;258443.00;;;;5073171;28;20241;-62
2023/12/25 04:58:23;;;;;;;0.60;0.60;;;;;231.90;258443.00;;;;5072978;28;20192;-62
2023/12/25 05:00:50;;;;;;;0.60;0.60;;;;;231.90;258443.00;;;;5073279;28;20260;-62
2023/12/25 05:03:21;;;;;;;0.87;0.77;;;;;231.90;258443.00;;;;5072938;28;20215;-62
2023/12/25 05:05:48;;;;;;;0.60;0.60;;;;;231.90;258443.00;;;;5073409;28;20249;-62
2023/12/25 05:08:16;;;;;;;0.63;0.63;;;;;231.90;258443.00;;;;5073164;28;20210;-62
2023/12/25 05:10:44;;;;;;;0.60;0.60;;;;;231.90;258443.00;;;;5073315;28;20191;-62
2023/12/25 05:13:11;;;;;;;0.60;0.60;;;;;231.90;258443.00;;;;5072681;28;20215;-62
2023/12/25 05:15:38;;;;;;;0.60;0.60;;;;;231.90;258443.00;;;;5073316;28;20581;-62
2023/12/25 05:18:06;;;;;;;0.70;0.70;;;;;231.90;258443.00;;;;5072746;28;20678;-62
2023/12/25 05:20:35;;;;;;;0.60;0.60;;;;;231.90;258443.00;;;;5072745;28;20198;-62
2023/12/25 05:23:02;;;;;;;0.60;0.60;;;;;231.90;258443.00;;;;5072657;28;20208;-62
2023/12/25 05:25:30;;;;;;;0.83;0.83;;;;;231.90;258443.00;;;;5072696;28;20593;-62
2023/12/25 05:27:57;;;;;;;0.60;0.60;;;;;231.90;258443.00;;;;5073200;28;20190;-62
2023/12/25 05:30:25;;;;;;;1.07;0.87;;;;;231.90;258443.00;;;;5072846;28;20202;-62
2023/12/25 05:32:52;;;;;;;0.60;0.60;;;;;231.90;258443.00;;;;5072613;28;20337;-62
2023/12/25 05:35:20;;;;;;;0.53;0.53;;;;;231.90;258443.00;;;;5073112;28;20196;-62
2023/12/25 05:37:48;;;;;;;0.77;0.77;;;;;231.90;258443.00;;;;5072551;28;20198;-62
2023/12/25 05:40:16;;;;;;;1.03;1.00;;;;;231.90;258443.00;;;;5072530;28;20199;-63
2023/12/25 05:42:44;;;;;;;0.60;0.60;;;;;231.90;258443.00;;;;5073010;28;20265;-62
2023/12/25 05:45:11;;;;;;;0.73;0.73;;;;;231.90;258443.00;;;;5072999;28;20191;-62
2023/12/25 05:47:39;;;;;;;0.60;0.60;;;;;231.90;258443.00;;;;5072557;28;20211;-62
2023/12/25 05:50:08;;;;;;;1.70;0.93;;;;;231.90;258443.00;;;;5072503;28;20200;-62
2023/12/25 05:52:36;;;;;;;0.83;0.83;;;;;231.90;258443.00;;;;5072390;28;20752;-62
2023/12/25 05:55:05;;;;;;;0.60;0.60;;;;;231.90;258443.00;;;;5073193;28;20196;-63
2023/12/25 05:57:33;;;;;;;0.60;0.60;;;;;231.90;258443.00;;;;5075989;28;20198;-62
2023/12/25 06:00:00;;;;;;;1.27;1.17;;;;;231.90;258443.00;;;;5076223;28;20199;-62
2023/12/25 06:02:28;;;;;;;1.07;0.93;;;;;231.90;258443.00;;;;5075822;28;20222;-62
2023/12/25 06:04:55;;;;;;;0.83;0.83;;;;;231.90;258443.00;;;;5076003;28;20193;-63
2023/12/25 06:07:23;;;;;;;0.60;0.60;;;;;231.90;258443.00;;;;5076244;28;20219;-62
2023/12/25 06:09:51;;;;;;;0.73;0.73;;;;;231.90;258443.00;;;;5075838;28;20187;-62
2023/12/25 06:12:20;;;;;;;0.93;0.93;;;;;231.90;258443.00;;;;5075802;28;20709;-62
2023/12/25 06:14:47;;;;;;;0.90;0.90;;;;;231.90;258443.00;;;;5075725;28;20195;-63
2023/12/25 06:17:14;;;;;;;0.70;0.70;;;;;231.90;258443.00;;;;5075954;28;20657;-62
2023/12/25 06:19:42;;;;;;;0.83;0.83;;;;;231.90;258443.00;;;;5075945;28;20175;-62
2023/12/25 06:22:11;;;;;;;1.67;1.10;;;;;231.90;258443.00;;;;5075602;28;20215;-62
2023/12/25 06:24:38;;;;;;;0.90;0.90;;;;;231.90;258443.00;;;;5075796;28;20200;-63
2023/12/25 06:27:06;;;;;;;0.50;0.50;;;;;231.90;258443.00;;;;5075399;28;20227;-63
2023/12/25 06:29:34;;;;;;;0.60;0.60;;;;;231.90;258443.00;;;;5075598;28;20195;-62
2023/12/25 06:32:02;;;;;;;0.70;0.70;;;;;231.90;258443.00;;;;5075473;28;20212;-62
2023/12/25 06:34:30;;;;;;;0.50;0.50;;;;;231.90;258443.00;;;;5075782;28;20226;-62
2023/12/25 06:36:57;;;;;;;0.60;0.60;;;;;231.90;258443.00;;;;5075464;28;20188;-62
2023/12/25 06:39:24;;;;;;;0.60;0.60;;;;;231.90;258443.00;;;;5075613;28;20199;-62
2023/12/25 06:41:52;;;;;;;0.83;0.83;;;;;231.90;258443.00;;;;5073977;28;20226;-62
2023/12/25 06:44:19;;;;;;;0.50;0.50;;;;;231.90;258443.00;;;;5075087;28;20187;-62
2023/12/25 06:46:48;;;;;;;0.70;0.70;;;;;231.90;258443.00;;;;5075067;28;20662;-62
2023/12/25 06:49:15;;;;;;;0.67;0.67;;;;;231.90;258443.00;;;;5075112;28;20191;-62
2023/12/25 06:51:44;;;;;;;0.63;0.63;;;;;231.90;258443.00;;;;5075064;28;20222;-62
2023/12/25 06:54:12;;;;;;;0.77;0.57;;;;;231.90;258443.00;;;;5074946;28;20192;-62
2023/12/25 06:56:39;;;;;;;0.80;0.80;;;;;231.90;258443.00;;;;5075042;28;20188;-62
2023/12/25 06:59:07;;;;;;;0.60;0.60;;;;;231.90;258443.00;;;;5075033;28;20198;-62
2023/12/25 07:01:34;;;;;;;0.60;0.60;;;;;231.90;258443.00;;;;5074870;28;20319;-62
2023/12/25 07:04:03;;;;;;;0.70;0.70;;;;;231.90;258443.00;;;;5073577;28;20663;-62
2023/12/25 07:06:31;;;;;;;0.60;0.60;;;;;231.90;258443.00;;;;5073897;28;20622;-62
2023/12/25 07:08:58;;;;;;;1.03;1.03;;;;;231.90;258443.00;;;;5074623;28;20195;-62
2023/12/25 07:11:27;;;;;;;0.50;0.50;;;;;231.90;258443.00;;;;5075052;28;20274;-62
2023/12/25 07:13:56;;;;;;;1.40;0.63;;;;;231.90;258443.00;;;;5074942;28;20206;-62
2023/12/25 07:16:25;;;;;;;0.63;0.63;;;;;231.90;258443.00;;;;5074698;28;20183;-62
2023/12/25 07:18:54;;;;;;;0.70;0.70;;;;;231.90;258443.00;;;;5074489;28;20199;-62
2023/12/25 07:21:23;;;;;;;0.80;0.80;;;;;231.90;258443.00;;;;5075040;28;20202;-62
2023/12/25 07:23:52;;;;;;;0.50;0.50;;;;;231.90;258443.00;;;;5074729;28;20195;-62
2023/12/25 07:26:20;;;;;;;0.50;0.50;;;;;231.90;258443.00;;;;5074259;28;20298;-62
2023/12/25 07:28:47;;;;;;;0.87;0.87;;;;;231.90;258443.00;;;;5074232;28;20202;-62
2023/12/25 07:31:16;;;;;;;0.60;0.60;;;;;231.90;258443.00;;;;5074251;28;20192;-62
2023/12/25 07:33:43;;;;;;;0.60;0.60;;;;;231.90;258443.00;;;;5074261;28;20202;-62
2023/12/25 07:36:11;;;;;;;0.70;0.70;;;;;231.90;258443.00;;;;5074452;28;20199;-62
2023/12/25 07:38:41;;;;;;;0.90;0.90;;;;;231.90;258443.00;;;;5074030;28;20198;-62
2023/12/25 07:41:09;;;;;;;0.90;0.90;;;;;231.90;258443.00;;;;5074849;28;20188;-62
2023/12/25 07:43:37;;;;;;;0.50;0.50;;;;;231.90;258443.00;;;;5074378;28;20216;-62
2023/12/25 07:46:06;;;;;;;0.60;0.60;;;;;231.90;258443.00;;;;5074154;28;20284;-62
2023/12/25 07:48:34;;;;;;;16.43;0.90;;;;;231.90;258443.00;;;;5073941;28;20202;-62
2023/12/25 07:51:01;;;;;;;0.90;0.90;;;;;231.90;258443.00;;;;5073918;28;20578;-62
2023/12/25 07:53:29;;;;;;;0.63;0.63;;;;;231.90;258443.00;;;;5073641;28;20211;-62
2023/12/25 07:55:58;;;;;;;0.60;0.60;;;;;231.90;258443.00;;;;5073304;28;20245;-62
2023/12/25 07:58:25;;;;;;;1.00;1.00;;;;;231.90;258443.00;;;;5073819;28;20202;-62
2023/12/25 08:00:53;;;;;;;0.60;0.60;;;;;231.90;258443.00;;;;5073746;28;20666;-62
2023/12/25 08:03:20;;;;;;;0.70;0.70;;;;;231.90;258443.00;;;;5073857;28;20235;-62
2023/12/25 08:05:48;;;;;;;0.60;0.60;;;;;231.90;258443.00;;;;5072382;28;20252;-62
2023/12/25 08:08:15;;;;;;;0.70;0.70;;;;;231.90;258443.00;;;;5073793;28;20214;-62
2023/12/25 08:10:42;;;;;;;0.57;0.57;;;;;231.90;258443.00;;;;5073739;28;20203;-62
2023/12/25 08:13:11;;;;;;;0.83;0.83;;;;;231.90;258443.00;;;;5073512;28;20216;-62
2023/12/25 08:15:39;;;;;;;0.90;0.90;;;;;231.90;258443.00;;;;5073320;28;20187;-62
2023/12/25 08:18:06;;;;;;;0.67;0.67;;;;;231.90;258443.00;;;;5073432;28;20210;-62
2023/12/25 08:20:34;;;;;;;0.53;0.53;;;;;231.90;258443.00;;;;5073284;28;20203;-62
2023/12/25 08:23:01;;;;;;;0.50;0.50;;;;;231.90;258443.00;;;;5073243;28;20238;-62
2023/12/25 08:25:29;;;;;;;0.60;0.60;;;;;231.90;258443.00;;;;5073788;28;20187;-62
2023/12/25 08:27:56;;;;;;;1.03;0.63;;;;;231.90;258443.00;;;;5073157;28;20211;-62
2023/12/25 08:30:25;;;;;;;0.60;0.60;;;;;231.90;258443.00;;;;5073724;28;20643;-62
2023/12/25 08:32:52;;;;;;;0.60;0.60;;;;;231.90;258443.00;;;;5073522;28;20221;-62
2023/12/25 08:35:20;;;;;;;0.90;0.90;;;;;231.90;258443.00;;;;5073570;28;20547;-62
2023/12/25 08:37:47;;;;;;;0.50;0.50;;;;;231.90;258443.00;;;;5073232;28;20197;-62
2023/12/25 08:40:14;;;;;;;0.60;0.60;;;;;231.90;258443.00;;;;5073041;28;20195;-62
2023/12/25 08:42:42;;;;;;;0.60;0.60;;;;;231.90;258443.00;;;;5071654;28;20215;-62
2023/12/25 08:45:10;;;;;;;0.60;0.60;;;;;231.90;258443.00;;;;5073240;28;20619;-62
2023/12/25 08:47:40;;;;;;;0.60;0.60;;;;;231.90;258443.00;;;;5072848;28;20222;-62
2023/12/25 08:50:08;;;;;;;1.17;1.07;;;;;231.90;258443.00;;;;5073137;28;20210;-62
2023/12/25 08:52:35;;;;;;;1.00;0.90;;;;;231.90;258443.00;;;;5073231;28;20212;-62
2023/12/25 08:55:03;;;;;;;0.80;0.80;;;;;231.90;258443.00;;;;5072985;28;20241;-62
2023/12/25 08:57:35;;;;;;;0.67;0.67;;;;;231.90;258443.00;;;;5073253;28;20195;-62
2023/12/25 09:00:04;;;;;;;0.83;0.83;;;;;231.90;258443.00;;;;5073614;28;20183;-62
2023/12/25 09:02:31;;;;;;;0.53;0.53;;;;;231.90;258443.00;;;;5072988;28;20314;-62
2023/12/25 09:05:00;;;;;;;0.60;0.60;;;;;231.90;258443.00;;;;5073490;28;20200;-62
2023/12/25 09:07:27;;;;;;;0.63;0.63;;;;;231.90;258443.00;;;;5072851;28;20225;-62
2023/12/25 09:09:55;;;;;;;0.63;0.63;;;;;231.90;258443.00;;;;5072898;28;20197;-62
2023/12/25 09:12:22;;;;;;;0.97;0.97;;;;;231.90;258443.00;;;;5072955;28;20290;-62
2023/12/25 09:14:50;;;;;;;0.90;0.90;;;;;231.90;258443.00;;;;5072663;28;20658;-62
2023/12/25 09:17:17;;;;;;;0.70;0.70;;;;;231.90;258443.00;;;;5072649;28;20187;-62
2023/12/25 09:19:45;;;;;;;0.73;0.73;;;;;231.90;258443.00;;;;5073077;28;20184;-62
2023/12/25 09:22:13;;;;;;;0.60;0.60;;;;;231.90;258443.00;;;;5072847;28;20258;-63
2023/12/25 09:24:44;;;;;;;0.70;0.70;;;;;231.90;258443.00;;;;5073042;28;20206;-62
2023/12/25 09:27:11;;;;;;;0.90;0.90;;;;;231.90;258443.00;;;;5072831;28;20218;-62
2023/12/25 09:29:39;;;;;;;0.70;0.70;;;;;231.90;258443.00;;;;5073060;28;20239;-63
2023/12/25 09:32:06;;;;;;;0.50;0.50;;;;;231.90;258443.00;;;;5076757;28;20577;-63
2023/12/25 09:34:34;;;;;;;0.57;0.57;;;;;231.90;258443.00;;;;5076440;28;20187;-62
2023/12/25 09:37:01;;;;;;;0.60;0.60;;;;;231.90;258443.00;;;;5075293;28;20206;-62
2023/12/25 09:39:30;;;;;;;0.60;0.60;;;;;231.90;258443.00;;;;5076802;28;20659;-63
2023/12/25 09:41:58;;;;;;;0.67;0.67;;;;;231.90;258443.00;;;;5076820;28;20581;-62
2023/12/25 09:44:26;;;;;;;0.63;0.63;;;;;231.90;258443.00;;;;5076614;28;20558;-62
2023/12/25 09:46:54;;;;;;;0.70;0.70;;;;;231.90;258443.00;;;;5076780;28;20202;-62
2023/12/25 09:49:23;;;;;;;0.70;0.70;;;;;231.90;258443.00;;;;5074985;28;20222;-63
2023/12/25 09:51:55;;;;;;;0.67;0.67;;;;;231.90;258443.00;;;;5076372;28;20577;-63
2023/12/25 09:54:22;;;;;;;0.90;0.90;;;;;231.90;258443.00;;;;5076476;28;20183;-63
2023/12/25 09:56:52;;;;;;;0.60;0.60;;;;;231.90;258443.00;;;;5076454;28;20191;-63
2023/12/25 09:59:20;;;;;;;0.53;0.53;;;;;231.90;258443.00;;;;5076280;28;20199;-63
2023/12/25 10:01:47;;;;;;;0.60;0.60;;;;;231.90;258443.00;;;;5076148;28;20246;-63
2023/12/25 10:04:15;;;;;;;0.63;0.63;;;;;231.90;258443.00;;;;5076284;28;20199;-62
2023/12/25 10:06:44;;;;;;;0.70;0.70;;;;;231.90;258443.00;;;;5076368;28;20211;-63
2023/12/25 10:09:11;;;;;;;0.70;0.70;;;;;231.90;258443.00;;;;5076574;28;20278;-62
2023/12/25 10:11:39;;;;;;;1.10;1.00;;;;;231.90;258443.00;;;;5075970;28;20286;-62
2023/12/25 10:14:08;;;;;;;0.60;0.60;;;;;231.90;258443.00;;;;5076238;28;20188;-62
2023/12/25 10:16:36;;;;;;;0.70;0.70;;;;;231.90;258443.00;;;;5076042;28;20199;-62
2023/12/25 10:19:03;;;;;;;0.60;0.60;;;;;231.90;258443.00;;;;5075859;28;20192;-62
2023/12/25 10:21:42;;;;;;;0.70;0.70;;;;;231.90;258443.00;;;;5076057;28;20193;-63
2023/12/25 10:24:15;;;;;;;0.60;0.60;;;;;231.90;258443.00;;;;5075858;28;20191;-62
2023/12/25 10:26:44;;;;;;;0.60;0.60;;;;;231.90;258443.00;;;;5075812;28;20213;-63
2023/12/25 10:29:13;;;;;;;1.03;1.03;;;;;231.90;258443.00;;;;5075682;28;20215;-63
2023/12/25 10:31:43;;;;;;;0.70;0.70;;;;;231.90;258443.00;;;;5075947;28;20222;-63
2023/12/25 10:34:11;;;;;;;1.00;1.00;;;;;231.90;258443.00;;;;5075749;28;20724;-63
2023/12/25 10:36:40;;;;;;;0.70;0.70;;;;;231.90;258443.00;;;;5075439;28;20194;-63
2023/12/25 10:39:08;;;;;;;0.60;0.60;;;;;231.90;258443.00;;;;5075599;28;20266;-63
2023/12/25 10:41:35;;;;;;;0.60;0.60;;;;;231.90;258443.00;;;;5075033;28;20219;-63
2023/12/25 10:44:04;;;;;;;0.60;0.60;;;;;231.90;258443.00;;;;5075736;28;20192;-63
2023/12/25 10:46:36;;;;;;;9.03;1.50;;;;;231.90;258443.00;;;;5075443;28;20554;-63
2023/12/25 10:49:06;;;;;;;0.60;0.60;;;;;231.90;258443.00;;;;5075434;28;20213;-63
2023/12/25 10:51:35;;;;;;;0.70;0.70;;;;;231.90;258443.00;;;;5075142;28;20270;-63
2023/12/25 10:54:05;;;;;;;0.60;0.60;;;;;231.90;258443.00;;;;5075284;28;20278;-63
2023/12/25 10:56:34;;;;;;;0.70;0.70;;;;;231.90;258443.00;;;;5075062;28;20195;-63
2023/12/25 10:59:08;;;;;;;0.60;0.60;;;;;231.90;258443.00;;;;5075058;28;20590;-63
2023/12/25 11:01:39;;;;;;;0.60;0.60;;;;;231.90;258443.00;;;;5075123;28;20685;-63
2023/12/25 11:04:06;;;;;;;0.60;0.60;;;;;231.90;258443.00;;;;5074889;28;20179;-63
2023/12/25 11:06:35;;;;;;;0.50;0.50;;;;;231.90;258443.00;;;;5074896;28;20191;-63
2023/12/25 11:09:04;;;;;;;0.60;0.60;;;;;231.90;258443.00;;;;5074613;28;20713;-63
2023/12/25 11:11:32;;;;;;;0.60;0.60;;;;;231.90;258443.00;;;;5073274;28;20200;-63
2023/12/25 11:14:00;;;;;;;0.60;0.60;;;;;231.90;258443.00;;;;5074709;28;20196;-63
2023/12/25 11:16:29;;;;;;;0.50;0.50;;;;;231.90;258443.00;;;;5074806;28;20227;-63
2023/12/25 11:18:58;;;;;;;0.50;0.50;;;;;231.90;258443.00;;;;5074556;28;20717;-63
2023/12/25 11:21:29;;;;;;;0.63;0.63;;;;;231.90;258443.00;;;;5073260;28;20222;-63
2023/12/25 11:23:58;;;;;;;0.50;0.50;;;;;231.90;258443.00;;;;5074598;28;20194;-62
2023/12/25 11:26:27;;;;;;;0.50;0.50;;;;;231.90;258443.00;;;;5074397;28;20195;-63
2023/12/25 11:28:59;;;;;;;0.80;0.80;;;;;231.90;258443.00;;;;5074199;28;20226;-63
2023/12/25 11:31:30;;;;;;;0.60;0.60;;;;;231.90;258443.00;;;;5074623;28;20184;-63
2023/12/25 11:34:20;;;;;;;0.57;0.57;;;;;231.90;258443.00;;;;5074259;28;20184;-63
2023/12/25 11:36:51;;;;;;;0.50;0.50;;;;;231.90;258443.00;;;;5074123;28;20233;-63
2023/12/25 11:39:18;;;;;;;0.90;0.90;;;;;231.90;258443.00;;;;5074156;28;20171;-62
2023/12/25 11:41:47;;;;;;;0.60;0.60;;;;;231.90;258443.00;;;;5073951;28;20222;-62
2023/12/25 11:44:18;;;;;;;0.60;0.60;;;;;231.90;258443.00;;;;5073721;28;20191;-62
2023/12/25 11:46:47;;;;;;;0.60;0.60;;;;;231.90;258443.00;;;;5073874;28;20187;-62
2023/12/25 11:49:15;;;;;;;0.50;0.50;;;;;231.90;258443.00;;;;5073696;28;20219;-62
2023/12/25 11:51:47;;;;;;;0.60;0.60;;;;;231.90;258443.00;;;;5074185;28;20215;-62
2023/12/25 11:54:15;;;;;;;0.60;0.60;;;;;231.90;258443.00;;;;5073479;28;20184;-62
2023/12/25 11:56:42;;;;;;;0.60;0.60;;;;;231.90;258443.00;;;;5073808;28;20214;-62
2023/12/25 11:59:10;;;;;;;0.60;0.60;;;;;231.90;258443.00;;;;5073841;28;20682;-62
2023/12/25 12:01:39;;;;;;;0.80;0.80;;;;;231.90;258443.00;;;;5073583;28;20206;-63
2023/12/25 12:04:07;;;;;;;0.50;0.50;;;;;231.90;258443.00;;;;5074197;28;20531;-62